createdAt,value
2023-04-18T00:00:12.363Z,8.40
2023-04-18T00:02:40.012Z,8.40
2023-04-18T00:05:08.512Z,8.30
2023-04-18T00:07:35.665Z,8.30
2023-04-18T00:10:06.836Z,8.40
2023-04-18T00:12:34.276Z,8.30
2023-04-18T00:15:02.347Z,8.40
2023-04-18T00:17:30.345Z,8.40
2023-04-18T00:19:58.333Z,8.30
2023-04-18T00:22:25.989Z,8.30
2023-04-18T00:24:52.915Z,8.20
2023-04-18T00:27:20.750Z,8.20
2023-04-18T00:29:48.370Z,8.10
2023-04-18T00:32:16.848Z,8.10
2023-04-18T00:34:43.724Z,8.20
2023-04-18T00:37:10.538Z,8.20
2023-04-18T00:39:37.343Z,8.20
2023-04-18T00:42:05.092Z,8.30
2023-04-18T00:44:32.415Z,8.30
2023-04-18T00:46:59.349Z,8.30
2023-04-18T00:49:27.746Z,8.20
2023-04-18T00:51:56.593Z,8.20
2023-04-18T00:54:25.305Z,8.20
2023-04-18T00:56:52.220Z,8.10
2023-04-18T00:59:19.094Z,8.10
2023-04-18T01:01:46.345Z,8.10
2023-04-18T01:04:13.675Z,8.00
2023-04-18T01:10:48.226Z,8.10
2023-04-18T01:13:17.628Z,8.00
2023-04-18T01:15:48.429Z,8.00
2023-04-18T01:18:17.033Z,8.00
2023-04-18T01:20:53.161Z,8.00
2023-04-18T01:23:20.648Z,8.00
2023-04-18T01:25:49.364Z,8.00
2023-04-18T01:28:16.696Z,8.00
2023-04-18T01:30:43.511Z,8.00
2023-04-18T01:33:10.467Z,8.10
2023-04-18T01:35:37.305Z,8.10
2023-04-18T01:38:04.141Z,8.10
2023-04-18T01:40:31.255Z,8.00
2023-04-18T01:42:58.076Z,8.10
2023-04-18T01:45:24.910Z,7.90
2023-04-18T01:47:51.727Z,7.90
2023-04-18T01:50:18.752Z,7.80
2023-04-18T01:52:45.622Z,7.90
2023-04-18T01:55:12.481Z,8.00
2023-04-18T01:57:39.258Z,7.90
2023-04-18T02:00:07.585Z,7.80
2023-04-18T02:02:34.474Z,7.80
2023-04-18T02:05:01.494Z,7.80
2023-04-18T02:07:28.309Z,7.90
2023-04-18T02:09:55.132Z,8.00
2023-04-18T02:12:21.945Z,8.00
2023-04-18T02:14:53.380Z,8.10
2023-04-18T02:17:23.481Z,8.00
2023-04-18T02:19:51.631Z,8.00
2023-04-18T02:22:18.899Z,8.00
2023-04-18T02:24:45.821Z,8.00
2023-04-18T02:27:12.835Z,8.00
2023-04-18T02:29:39.632Z,7.90
2023-04-18T02:32:06.749Z,8.00
2023-04-18T02:34:33.714Z,7.90
2023-04-18T02:37:00.615Z,8.00
2023-04-18T02:39:27.535Z,8.00
2023-04-18T02:41:54.397Z,8.00
2023-04-18T02:44:21.175Z,8.00
2023-04-18T02:46:48.016Z,8.00
2023-04-18T02:49:14.819Z,8.00
2023-04-18T02:51:41.648Z,8.00
2023-04-18T02:54:08.545Z,8.00
2023-04-18T02:56:39.834Z,7.90
2023-04-18T02:59:07.396Z,7.90
2023-04-18T03:01:34.557Z,7.90
2023-04-18T03:04:01.387Z,8.00
2023-04-18T03:06:28.211Z,8.10
2023-04-18T03:08:55.935Z,8.00
2023-04-18T03:11:22.927Z,8.00
2023-04-18T03:13:49.760Z,8.00
2023-04-18T03:16:16.999Z,8.00
2023-04-18T03:18:43.942Z,8.00
2023-04-18T03:21:11.394Z,8.00
2023-04-18T03:23:38.436Z,8.00
2023-04-18T03:26:07.593Z,8.10
2023-04-18T03:28:34.803Z,8.00
2023-04-18T03:31:01.706Z,8.00
2023-04-18T03:33:28.828Z,8.10
2023-04-18T03:35:55.745Z,8.00
2023-04-18T03:38:22.591Z,7.90
2023-04-18T03:40:49.414Z,7.90
2023-04-18T03:43:16.290Z,7.90
2023-04-18T03:45:44.174Z,7.90
2023-04-18T03:48:10.964Z,7.90
2023-04-18T03:50:37.706Z,7.90
2023-04-18T03:53:04.475Z,7.90
2023-04-18T03:55:31.357Z,7.90
2023-04-18T03:57:59.122Z,7.90
2023-04-18T04:00:26.737Z,7.90
2023-04-18T04:02:53.744Z,7.90
2023-04-18T04:05:20.688Z,7.90
2023-04-18T04:07:47.675Z,8.00
2023-04-18T04:10:14.585Z,8.00
2023-04-18T04:12:41.376Z,8.00
2023-04-18T04:15:08.874Z,8.00
2023-04-18T04:17:35.692Z,8.00
2023-04-18T04:20:02.583Z,8.00
2023-04-18T04:22:29.349Z,8.00
2023-04-18T04:24:57.706Z,8.00
2023-04-18T04:27:25.088Z,8.00
2023-04-18T04:29:54.626Z,8.00
2023-04-18T04:32:21.643Z,8.00
2023-04-18T04:34:49.401Z,8.00
2023-04-18T04:37:18.555Z,8.00
2023-04-18T04:39:46.029Z,8.10
2023-04-18T04:42:13.335Z,8.00
2023-04-18T04:44:41.670Z,8.00
2023-04-18T04:47:08.648Z,7.90
2023-04-18T04:49:35.664Z,8.00
2023-04-18T04:52:05.762Z,8.10
2023-04-18T04:54:32.561Z,8.00
2023-04-18T04:56:59.330Z,8.00
2023-04-18T04:59:26.465Z,8.10
2023-04-18T05:01:53.385Z,8.10
2023-04-18T05:04:20.419Z,8.10
2023-04-18T05:06:47.426Z,8.00
2023-04-18T05:09:14.202Z,8.00
2023-04-18T05:11:40.967Z,8.00
2023-04-18T05:14:07.877Z,7.90
2023-04-18T05:16:34.815Z,8.00
2023-04-18T05:19:01.788Z,8.00
2023-04-18T05:21:29.392Z,8.00
2023-04-18T05:23:56.240Z,8.10
2023-04-18T05:26:23.499Z,8.10
2023-04-18T05:28:50.586Z,8.10
2023-04-18T05:31:17.490Z,8.20
2023-04-18T05:33:44.345Z,8.20
2023-04-18T05:36:11.220Z,8.10
2023-04-18T05:38:38.110Z,8.10
2023-04-18T05:41:05.118Z,8.20
2023-04-18T05:43:32.047Z,8.20
2023-04-18T05:45:59.101Z,8.20
2023-04-18T05:48:26.029Z,8.30
2023-04-18T05:50:53.015Z,8.30
2023-04-18T05:53:19.811Z,8.30
2023-04-18T05:55:48.660Z,8.30
2023-04-18T05:58:16.001Z,8.30
2023-04-18T06:00:43.315Z,8.30
2023-04-18T06:03:11.332Z,8.30
2023-04-18T06:05:38.751Z,8.20
2023-04-18T06:08:05.914Z,8.30
2023-04-18T06:10:33.307Z,8.20
2023-04-18T06:13:00.223Z,8.30
2023-04-18T06:15:27.082Z,8.40
2023-04-18T06:17:54.003Z,8.50
2023-04-18T06:20:23.058Z,8.50
2023-04-18T06:22:49.857Z,8.60
2023-04-18T06:25:16.693Z,8.60
2023-04-18T06:27:43.538Z,8.60
2023-04-18T06:30:11.292Z,8.70
2023-04-18T06:32:38.298Z,8.80
2023-04-18T06:35:06.043Z,8.80
2023-04-18T06:37:32.948Z,8.90
2023-04-18T06:39:59.719Z,8.90
2023-04-18T06:42:26.642Z,8.90
2023-04-18T06:44:53.465Z,9.00
2023-04-18T06:47:20.422Z,9.10
2023-04-18T06:49:48.087Z,9.00
2023-04-18T06:52:14.908Z,9.10
2023-04-18T06:54:41.673Z,9.00
2023-04-18T06:57:08.867Z,9.10
2023-04-18T06:59:35.751Z,9.10
2023-04-18T07:02:02.560Z,9.20
2023-04-18T07:04:29.370Z,9.20
2023-04-18T07:06:56.366Z,9.20
2023-04-18T07:09:23.127Z,9.10
2023-04-18T07:11:51.064Z,9.10
2023-04-18T07:14:19.846Z,9.30
2023-04-18T07:16:47.075Z,9.10
2023-04-18T07:19:13.885Z,9.20
2023-04-18T07:21:42.895Z,9.20
2023-04-18T07:24:10.288Z,9.30
2023-04-18T07:26:38.210Z,9.30
2023-04-18T07:29:05.074Z,9.40
2023-04-18T07:31:31.932Z,9.50
2023-04-18T07:33:59.075Z,9.60
2023-04-18T07:36:26.369Z,9.60
2023-04-18T07:38:53.183Z,9.60
2023-04-18T07:41:19.964Z,9.60
2023-04-18T07:43:46.720Z,9.70
2023-04-18T07:46:13.579Z,9.70
2023-04-18T07:48:40.632Z,9.80
2023-04-18T07:51:07.489Z,9.80
2023-04-18T07:53:34.271Z,9.90
2023-04-18T07:56:01.078Z,10.00
2023-04-18T07:58:27.885Z,10.00
2023-04-18T08:00:54.735Z,10.00
2023-04-18T08:03:21.786Z,10.00
2023-04-18T08:05:49.027Z,10.00
2023-04-18T08:08:16.704Z,10.00
2023-04-18T08:10:43.582Z,10.10
2023-04-18T08:13:12.942Z,10.10
2023-04-18T08:15:40.913Z,10.10
2023-04-18T08:18:07.870Z,10.10
2023-04-18T08:20:37.011Z,10.10
2023-04-18T08:23:08.632Z,10.20
2023-04-18T08:25:37.328Z,10.20
2023-04-18T08:28:04.519Z,10.20
2023-04-18T08:30:31.518Z,10.20
2023-04-18T08:33:00.348Z,10.20
2023-04-18T08:35:27.414Z,10.20
2023-04-18T08:37:54.457Z,10.20
2023-04-18T08:40:21.457Z,10.20
2023-04-18T08:42:49.176Z,10.20
2023-04-18T08:45:16.215Z,10.30
2023-04-18T08:47:43.378Z,10.20
2023-04-18T08:50:11.246Z,10.20
2023-04-18T08:52:40.096Z,10.20
2023-04-18T08:55:09.396Z,10.10
2023-04-18T08:57:36.340Z,10.10
2023-04-18T09:00:11.291Z,10.10
2023-04-18T09:02:42.689Z,10.10
2023-04-18T09:05:21.205Z,10.10
2023-04-18T09:07:50.774Z,9.90
2023-04-18T09:10:34.240Z,9.80
2023-04-18T09:13:03.878Z,9.90
2023-04-18T09:15:31.225Z,9.90
2023-04-18T09:18:02.889Z,9.90
2023-04-18T09:20:35.783Z,9.90
2023-04-18T09:23:05.522Z,9.80
2023-04-18T09:25:44.966Z,9.90
2023-04-18T09:28:29.406Z,9.90
2023-04-18T09:31:12.926Z,10.00
2023-04-18T09:33:49.573Z,9.90
2023-04-18T09:36:27.031Z,10.00
2023-04-18T09:38:57.031Z,9.90
2023-04-18T09:41:38.564Z,9.90
2023-04-18T09:44:20.093Z,9.90
2023-04-18T09:46:47.741Z,10.00
2023-04-18T09:49:30.055Z,9.90
2023-04-18T09:51:57.490Z,9.80
2023-04-18T09:54:26.027Z,9.90
2023-04-18T09:56:55.337Z,10.00
2023-04-18T09:59:37.933Z,10.00
2023-04-18T10:02:08.095Z,10.10
2023-04-18T10:04:57.220Z,10.20
2023-04-18T10:07:26.142Z,10.30
2023-04-18T10:09:53.550Z,10.30
2023-04-18T10:12:20.544Z,10.40
2023-04-18T10:14:48.032Z,10.40
2023-04-18T10:17:20.332Z,10.40
2023-04-18T10:22:55.189Z,10.40
2023-04-18T10:25:40.001Z,10.30
2023-04-18T10:28:09.234Z,10.30
2023-04-18T10:30:40.071Z,10.40
2023-04-18T10:33:33.388Z,10.40
2023-04-18T10:36:09.678Z,10.30
2023-04-18T10:38:45.413Z,10.10
2023-04-18T10:41:27.552Z,10.30
2023-04-18T10:44:08.515Z,10.40
2023-04-18T10:46:41.938Z,10.50
2023-04-18T10:49:18.910Z,10.70
2023-04-18T10:51:47.821Z,10.70
2023-04-18T10:54:47.206Z,10.60
2023-04-18T10:57:15.228Z,10.80
2023-04-18T10:59:45.237Z,10.80
2023-04-18T11:02:30.298Z,10.90
2023-04-18T11:04:59.806Z,11.00
2023-04-18T11:07:42.032Z,10.80
2023-04-18T11:10:30.085Z,10.80
2023-04-18T11:12:59.163Z,11.00
2023-04-18T11:15:26.303Z,11.10
2023-04-18T11:18:04.612Z,11.10
2023-04-18T11:20:39.844Z,10.90
2023-04-18T11:23:18.153Z,11.00
2023-04-18T11:25:45.842Z,10.90
2023-04-18T11:28:16.731Z,10.80
2023-04-18T11:30:43.557Z,10.90
2023-04-18T11:33:12.457Z,10.90
2023-04-18T11:35:41.802Z,10.80
2023-04-18T11:38:10.936Z,10.80
2023-04-18T11:40:37.947Z,10.90
2023-04-18T11:43:07.001Z,10.90
2023-04-18T11:45:34.116Z,11.00
2023-04-18T11:48:01.475Z,11.10
2023-04-18T11:50:28.415Z,11.10
2023-04-18T11:52:56.019Z,11.20
2023-04-18T11:55:25.429Z,11.20
2023-04-18T11:57:59.767Z,11.20
2023-04-18T12:00:41.882Z,11.30
2023-04-18T12:03:17.182Z,11.40
2023-04-18T12:05:44.992Z,11.40
2023-04-18T12:08:18.175Z,11.40
2023-04-18T12:10:51.188Z,11.50
2023-04-18T12:13:19.004Z,11.40
2023-04-18T12:15:46.967Z,11.50
2023-04-18T12:18:15.626Z,11.50
2023-04-18T12:20:52.402Z,11.40
2023-04-18T12:23:33.857Z,11.50
2023-04-18T12:26:06.952Z,11.60
2023-04-18T12:28:34.924Z,11.60
2023-04-18T12:31:02.613Z,11.70
2023-04-18T12:33:30.433Z,11.70
2023-04-18T12:35:57.383Z,11.60
2023-04-18T12:38:24.386Z,11.50
2023-04-18T12:40:52.429Z,11.50
2023-04-18T12:43:19.890Z,11.40
2023-04-18T12:45:48.010Z,11.20
2023-04-18T12:48:15.906Z,11.10
2023-04-18T12:50:43.931Z,11.10
2023-04-18T12:53:11.516Z,11.10
2023-04-18T12:55:38.938Z,11.10
2023-04-18T12:58:06.260Z,11.10
2023-04-18T13:00:33.560Z,11.20
2023-04-18T13:03:01.016Z,11.10
2023-04-18T13:05:33.068Z,11.20
2023-04-18T13:10:32.005Z,11.00
2023-04-18T13:12:58.969Z,11.10
2023-04-18T13:15:27.444Z,11.10
2023-04-18T13:17:56.676Z,11.10
2023-04-18T13:20:23.668Z,11.20
2023-04-18T13:22:50.609Z,11.10
2023-04-18T13:25:17.420Z,11.10
2023-04-18T13:27:45.787Z,11.20
2023-04-18T13:30:12.996Z,11.20
2023-04-18T13:32:41.532Z,11.20
2023-04-18T13:35:11.398Z,11.20
2023-04-18T13:37:38.809Z,11.20
2023-04-18T13:40:07.866Z,11.10
2023-04-18T13:42:36.690Z,11.10
2023-04-18T13:45:04.247Z,11.00
2023-04-18T13:47:31.278Z,11.00
2023-04-18T13:49:58.428Z,11.00
2023-04-18T13:52:25.903Z,11.10
2023-04-18T13:54:52.862Z,11.10
2023-04-18T13:57:19.912Z,11.10
2023-04-18T13:59:46.834Z,11.10
2023-04-18T14:02:13.964Z,11.10
2023-04-18T14:04:41.419Z,11.10
2023-04-18T14:07:11.801Z,11.00
2023-04-18T14:09:38.697Z,10.90
2023-04-18T14:12:06.007Z,10.80
2023-04-18T14:14:33.232Z,10.90
2023-04-18T14:17:00.013Z,10.90
2023-04-18T14:19:27.452Z,10.90
2023-04-18T14:21:54.541Z,11.00
2023-04-18T14:24:21.544Z,11.00
2023-04-18T14:26:48.358Z,11.00
2023-04-18T14:29:15.661Z,11.00
2023-04-18T14:31:42.825Z,11.00
2023-04-18T14:34:09.797Z,11.00
2023-04-18T14:36:37.030Z,11.00
2023-04-18T14:39:04.762Z,11.00
2023-04-18T14:41:31.703Z,10.90
2023-04-18T14:43:59.499Z,11.00
2023-04-18T14:46:28.246Z,10.90
2023-04-18T14:48:55.446Z,10.90
2023-04-18T14:51:23.213Z,10.90
2023-04-18T14:53:50.094Z,11.00
2023-04-18T14:56:20.816Z,11.00
2023-04-18T14:58:47.732Z,10.90
2023-04-18T15:01:14.721Z,10.90
2023-04-18T15:03:41.748Z,10.80
2023-04-18T15:06:08.843Z,10.80
2023-04-18T15:08:36.018Z,10.70
2023-04-18T15:11:07.537Z,10.70
2023-04-18T15:13:34.478Z,10.70
2023-04-18T15:16:01.484Z,10.60
2023-04-18T15:18:29.584Z,10.60
2023-04-18T15:20:59.074Z,10.60
2023-04-18T15:23:26.105Z,10.50
2023-04-18T15:25:52.935Z,10.60
2023-04-18T15:28:19.929Z,10.60
2023-04-18T15:30:47.026Z,10.70
2023-04-18T15:33:14.154Z,10.70
2023-04-18T15:35:40.953Z,10.70
2023-04-18T15:38:07.745Z,10.70
2023-04-18T15:40:36.127Z,10.80
2023-04-18T15:43:03.981Z,10.80
2023-04-18T15:45:31.243Z,10.70
2023-04-18T15:47:58.782Z,10.70
2023-04-18T15:50:26.075Z,10.70
2023-04-18T15:52:53.128Z,10.70
2023-04-18T15:55:20.087Z,10.80
2023-04-18T15:57:46.970Z,10.80
2023-04-18T16:00:17.458Z,10.70
2023-04-18T16:02:45.490Z,10.70
2023-04-18T16:05:13.141Z,10.70
2023-04-18T16:07:42.001Z,10.70
2023-04-18T16:10:11.269Z,10.60
2023-04-18T16:12:39.528Z,10.60
2023-04-18T16:15:09.030Z,10.70
2023-04-18T16:17:37.258Z,10.70
2023-04-18T16:20:06.204Z,10.70
2023-04-18T16:22:33.297Z,10.60
2023-04-18T16:25:00.302Z,10.50
2023-04-18T16:27:27.248Z,10.40
2023-04-18T16:29:54.385Z,10.40
2023-04-18T16:32:21.289Z,10.40
2023-04-18T16:34:48.497Z,10.40
2023-04-18T16:37:15.874Z,10.40
2023-04-18T16:39:42.723Z,10.40
2023-04-18T16:42:09.528Z,10.40
2023-04-18T16:44:36.488Z,10.40
2023-04-18T16:47:04.994Z,10.40
2023-04-18T16:49:31.978Z,10.40
2023-04-18T16:51:58.786Z,10.40
2023-04-18T16:54:25.577Z,10.30
2023-04-18T16:56:52.434Z,10.30
2023-04-18T16:59:19.247Z,10.30
2023-04-18T17:01:46.128Z,10.30
2023-04-18T17:04:15.365Z,10.30
2023-04-18T17:06:43.670Z,10.30
2023-04-18T17:09:13.450Z,10.30
2023-04-18T17:11:41.746Z,10.20
2023-04-18T17:14:09.175Z,10.20
2023-04-18T17:16:40.559Z,10.10
2023-04-18T17:19:08.557Z,10.20
2023-04-18T17:21:36.591Z,10.10
2023-04-18T17:24:05.805Z,10.20
2023-04-18T17:26:38.219Z,10.20
2023-04-18T17:29:05.214Z,10.20
2023-04-18T17:31:32.587Z,10.20
2023-04-18T17:34:00.327Z,10.10
2023-04-18T17:36:27.170Z,10.10
2023-04-18T17:38:54.114Z,10.00
2023-04-18T17:41:21.714Z,10.00
2023-04-18T17:43:50.969Z,10.10
2023-04-18T17:46:18.065Z,10.10
2023-04-18T17:48:45.030Z,10.10
2023-04-18T17:51:11.892Z,10.10
2023-04-18T17:53:38.725Z,10.10
2023-04-18T17:56:06.194Z,10.10
2023-04-18T17:58:33.035Z,10.10
2023-04-18T18:00:59.925Z,10.00
2023-04-18T18:03:27.039Z,10.10
2023-04-18T18:05:55.023Z,10.00
2023-04-18T18:08:22.576Z,10.10
2023-04-18T18:10:49.764Z,10.00
2023-04-18T18:13:16.628Z,10.00
2023-04-18T18:15:43.459Z,10.00
2023-04-18T18:18:10.542Z,10.00
2023-04-18T18:20:38.024Z,10.00
2023-04-18T18:23:05.020Z,10.00
2023-04-18T18:25:32.641Z,10.00
2023-04-18T18:27:59.704Z,10.00
2023-04-18T18:30:27.848Z,10.00
2023-04-18T18:32:56.326Z,9.90
2023-04-18T18:35:23.969Z,9.90
2023-04-18T18:37:50.979Z,9.90
2023-04-18T18:40:17.873Z,9.90
2023-04-18T18:42:45.356Z,9.90
2023-04-18T18:45:12.592Z,9.90
2023-04-18T18:47:40.480Z,9.90
2023-04-18T18:50:07.834Z,9.90
2023-04-18T18:52:35.830Z,9.90
2023-04-18T18:55:04.425Z,9.90
2023-04-18T18:57:33.819Z,9.80
2023-04-18T19:00:02.288Z,9.90
2023-04-18T19:02:57.230Z,9.90
2023-04-18T19:05:27.457Z,9.90
2023-04-18T19:07:56.476Z,9.90
2023-04-18T19:10:24.614Z,9.80
2023-04-18T19:12:51.565Z,9.90
2023-04-18T19:15:29.531Z,9.80
2023-04-18T19:17:57.708Z,9.80
2023-04-18T19:20:28.766Z,9.80
2023-04-18T19:22:57.363Z,9.80
2023-04-18T19:25:26.738Z,9.80
2023-04-18T19:27:53.670Z,9.80
2023-04-18T19:30:20.688Z,9.80
2023-04-18T19:32:47.571Z,9.70
2023-04-18T19:35:15.724Z,9.80
2023-04-18T19:37:43.293Z,9.70
2023-04-18T19:40:11.629Z,9.70
2023-04-18T19:42:38.834Z,9.70
2023-04-18T19:45:06.581Z,9.80
2023-04-18T19:47:34.044Z,9.80
2023-04-18T19:50:03.219Z,9.80
2023-04-18T19:52:30.174Z,9.90
2023-04-18T19:54:57.844Z,9.80
2023-04-18T19:57:27.464Z,9.80
2023-04-18T19:59:54.936Z,9.80
2023-04-18T20:02:21.854Z,9.80
2023-04-18T20:04:48.920Z,9.80
2023-04-18T20:07:16.549Z,9.80
2023-04-18T20:09:43.542Z,9.80
2023-04-18T20:12:10.528Z,9.80
2023-04-18T20:14:37.492Z,9.80
2023-04-18T20:17:04.409Z,9.80
2023-04-18T20:19:31.438Z,9.80
2023-04-18T20:21:58.449Z,9.80
2023-04-18T20:24:27.936Z,9.90
2023-04-18T20:26:55.838Z,9.80
2023-04-18T20:29:23.974Z,9.80
2023-04-18T20:31:52.661Z,9.80
2023-04-18T20:34:20.700Z,9.80
2023-04-18T20:36:53.634Z,9.80
2023-04-18T20:39:21.543Z,9.70
2023-04-18T20:41:54.242Z,9.80
2023-04-18T20:44:24.751Z,9.80
2023-04-18T20:46:53.595Z,9.80
2023-04-18T20:49:22.027Z,9.70
2023-04-18T20:51:49.728Z,9.70
2023-04-18T20:54:19.632Z,9.70
2023-04-18T20:56:49.290Z,9.80
2023-04-18T20:59:19.097Z,9.80
2023-04-18T21:01:48.018Z,9.70
2023-04-18T21:04:15.484Z,9.70
2023-04-18T21:06:44.040Z,9.60
2023-04-18T21:09:11.716Z,9.60
2023-04-18T21:11:38.998Z,9.60
2023-04-18T21:14:07.103Z,9.60
2023-04-18T21:16:36.135Z,9.60
2023-04-18T21:19:03.753Z,9.70
2023-04-18T21:21:32.321Z,9.60
2023-04-18T21:24:02.561Z,9.70
2023-04-18T21:26:31.479Z,9.60
2023-04-18T21:29:04.868Z,9.60
2023-04-18T21:31:33.420Z,9.60
2023-04-18T21:34:04.178Z,9.60
2023-04-18T21:36:32.240Z,9.60
2023-04-18T21:39:00.956Z,9.70
2023-04-18T21:41:28.062Z,9.60
2023-04-18T21:43:54.950Z,9.60
2023-04-18T21:46:21.899Z,9.60
2023-04-18T21:48:49.099Z,9.60
2023-04-18T21:51:17.697Z,9.60
2023-04-18T21:53:44.871Z,9.60
2023-04-18T21:56:11.907Z,9.60
2023-04-18T21:58:38.828Z,9.60
2023-04-18T22:01:05.807Z,9.70
2023-04-18T22:06:03.069Z,9.60
2023-04-18T22:08:31.381Z,9.60
2023-04-18T22:10:59.261Z,9.60
2023-04-18T22:13:33.374Z,9.60
2023-04-18T22:16:05.082Z,9.60
2023-04-18T22:18:35.242Z,9.60
2023-04-18T22:21:03.511Z,9.50
2023-04-18T22:23:30.970Z,9.40
2023-04-18T22:25:58.165Z,9.40
2023-04-18T22:28:27.685Z,9.40
2023-04-18T22:30:55.211Z,9.50
2023-04-18T22:33:22.123Z,9.40
2023-04-18T22:35:49.012Z,9.50
2023-04-18T22:38:16.222Z,9.40
2023-04-18T22:40:43.014Z,9.40
2023-04-18T22:43:09.795Z,9.40
2023-04-18T22:45:36.567Z,9.40
2023-04-18T22:48:03.641Z,9.40
2023-04-18T22:50:30.459Z,9.50
2023-04-18T22:52:57.435Z,9.60
2023-04-18T22:55:24.297Z,9.50
2023-04-18T22:57:51.070Z,9.50
2023-04-18T23:00:18.200Z,9.40
2023-04-18T23:02:45.187Z,9.40
2023-04-18T23:05:12.140Z,9.40
2023-04-18T23:07:38.929Z,9.40
2023-04-18T23:10:07.633Z,9.50
2023-04-18T23:12:34.359Z,9.40
2023-04-18T23:15:01.297Z,9.40
2023-04-18T23:17:28.181Z,9.40
2023-04-18T23:19:55.004Z,9.40
2023-04-18T23:22:24.038Z,9.40
2023-04-18T23:24:50.889Z,9.40
2023-04-18T23:27:18.732Z,9.40
2023-04-18T23:29:48.673Z,9.40
2023-04-18T23:32:15.800Z,9.40
2023-04-18T23:34:42.873Z,9.50
2023-04-18T23:37:09.726Z,9.50
2023-04-18T23:39:36.576Z,9.50
2023-04-18T23:42:03.444Z,9.50
2023-04-18T23:44:30.298Z,9.40
2023-04-18T23:46:57.070Z,9.50
2023-04-18T23:49:23.883Z,9.50
2023-04-18T23:51:50.753Z,9.40
2023-04-18T23:54:17.570Z,9.40
2023-04-18T23:56:44.395Z,9.50
2023-04-18T23:59:11.154Z,9.40
